createdAt,value
2023-05-11T00:01:39.716Z,100636.66
2023-05-11T00:04:06.765Z,100637.18
2023-05-11T00:06:33.635Z,100635.11
2023-05-11T00:09:00.880Z,100633.92
2023-05-11T00:11:27.783Z,100633.09
2023-05-11T00:13:54.737Z,100629.65
2023-05-11T00:16:21.929Z,100638.52
2023-05-11T00:18:49.334Z,100630.69
2023-05-11T00:21:16.289Z,100629.48
2023-05-11T00:23:43.437Z,100631.20
2023-05-11T00:26:10.330Z,100629.46
2023-05-11T00:28:37.718Z,100633.30
2023-05-11T00:31:04.891Z,100635.75
2023-05-11T00:33:31.768Z,100630.58
2023-05-11T00:35:58.502Z,100639.83
2023-05-11T00:38:25.613Z,100635.73
2023-05-11T00:40:52.892Z,100631.98
2023-05-11T00:43:19.800Z,100633.05
2023-05-11T00:45:48.583Z,100630.52
2023-05-11T00:48:15.521Z,100636.00
2023-05-11T00:50:42.494Z,100627.58
2023-05-11T00:53:09.928Z,100626.27
2023-05-11T00:55:37.053Z,100625.98
2023-05-11T00:58:05.680Z,100621.71
2023-05-11T01:00:32.899Z,100623.69
2023-05-11T01:03:01.250Z,100623.23
2023-05-11T01:05:36.322Z,100618.06
2023-05-11T01:08:13.542Z,100617.25
2023-05-11T01:10:48.308Z,100622.29
2023-05-11T01:13:24.435Z,100616.58
2023-05-11T01:15:54.099Z,100613.66
2023-05-11T01:18:31.658Z,100619.95
2023-05-11T01:21:04.238Z,100616.00
2023-05-11T01:24:10.309Z,100618.98
2023-05-11T01:26:57.454Z,100616.27
2023-05-11T01:29:43.597Z,100616.30
2023-05-11T01:32:16.635Z,100616.30
2023-05-11T01:34:44.536Z,100613.74
2023-05-11T01:37:16.356Z,100611.17
2023-05-11T01:39:49.986Z,100611.05
2023-05-11T01:42:19.706Z,100608.45
2023-05-11T01:44:48.362Z,100610.21
2023-05-11T01:47:17.339Z,100612.48
2023-05-11T01:49:47.563Z,100609.35
2023-05-11T01:52:16.167Z,100610.91
2023-05-11T01:54:45.414Z,100607.64
2023-05-11T01:57:15.216Z,100618.75
2023-05-11T01:59:42.433Z,100610.61
2023-05-11T02:02:11.855Z,100609.41
2023-05-11T02:04:41.445Z,100612.03
2023-05-11T02:07:12.199Z,100612.91
2023-05-11T02:09:40.471Z,100612.75
2023-05-11T02:12:09.433Z,100612.43
2023-05-11T02:14:39.359Z,100610.69
2023-05-11T02:17:07.526Z,100611.05
2023-05-11T02:19:35.242Z,100612.30
2023-05-11T02:22:03.285Z,100613.20
2023-05-11T02:24:31.388Z,100613.06
2023-05-11T02:26:59.205Z,100610.32
2023-05-11T02:29:26.498Z,100613.30
2023-05-11T02:32:03.839Z,100610.39
2023-05-11T02:34:39.975Z,100614.21
2023-05-11T02:37:11.977Z,100609.21
2023-05-11T02:39:40.080Z,100613.95
2023-05-11T02:42:13.758Z,100616.23
2023-05-11T02:44:43.412Z,100613.98
2023-05-11T02:47:14.056Z,100616.77
2023-05-11T02:49:42.190Z,100618.88
2023-05-11T02:52:11.505Z,100616.46
2023-05-11T02:54:43.902Z,100615.80
2023-05-11T02:57:11.214Z,100618.07
2023-05-11T02:59:38.614Z,100617.05
2023-05-11T03:02:06.059Z,100620.70
2023-05-11T03:04:33.036Z,100620.20
2023-05-11T03:07:00.211Z,100623.34
2023-05-11T03:09:27.474Z,100622.83
2023-05-11T03:11:54.947Z,100625.66
2023-05-11T03:14:22.755Z,100621.39
2023-05-11T03:16:51.267Z,100620.20
2023-05-11T03:19:19.335Z,100623.17
2023-05-11T03:21:47.740Z,100627.89
2023-05-11T03:24:15.460Z,100631.05
2023-05-11T03:26:44.902Z,100628.32
2023-05-11T03:29:13.290Z,100633.05
2023-05-11T03:31:40.880Z,100634.16
2023-05-11T03:34:08.159Z,100635.58
2023-05-11T03:36:39.613Z,100635.25
2023-05-11T03:39:16.001Z,100641.67
2023-05-11T03:41:45.816Z,100642.76
2023-05-11T03:44:15.296Z,100641.02
2023-05-11T03:46:45.926Z,100647.29
2023-05-11T03:49:15.044Z,100651.44
2023-05-11T03:51:42.950Z,100651.95
2023-05-11T03:54:11.191Z,100648.66
2023-05-11T03:56:41.228Z,100650.04
2023-05-11T03:59:08.740Z,100655.37
2023-05-11T04:01:36.424Z,100655.16
2023-05-11T04:04:03.664Z,100658.23
2023-05-11T04:06:31.523Z,100657.87
2023-05-11T04:09:14.922Z,100659.77
2023-05-11T04:11:42.280Z,100657.38
2023-05-11T04:14:09.108Z,100660.46
2023-05-11T04:16:36.628Z,100664.45
2023-05-11T04:19:03.519Z,100659.41
2023-05-11T04:21:30.733Z,100655.20
2023-05-11T04:23:57.956Z,100664.70
2023-05-11T04:26:24.902Z,100665.02
2023-05-11T04:28:52.377Z,100663.23
2023-05-11T04:31:21.052Z,100663.45
2023-05-11T04:33:48.513Z,100661.20
2023-05-11T04:36:16.268Z,100666.44
2023-05-11T04:38:44.046Z,100660.73
2023-05-11T04:41:11.489Z,100661.96
2023-05-11T04:43:39.868Z,100662.95
2023-05-11T04:46:08.862Z,100664.75
2023-05-11T04:48:36.000Z,100665.27
2023-05-11T04:51:07.090Z,100665.28
2023-05-11T04:53:39.437Z,100667.55
2023-05-11T04:56:07.036Z,100670.30
2023-05-11T04:58:36.325Z,100670.30
2023-05-11T05:01:03.527Z,100670.56
2023-05-11T05:03:30.906Z,100671.27
2023-05-11T05:05:57.849Z,100670.70
2023-05-11T05:08:25.207Z,100672.98
2023-05-11T05:10:52.470Z,100667.89
2023-05-11T05:13:19.326Z,100668.65
2023-05-11T05:15:46.774Z,100669.77
2023-05-11T05:18:13.718Z,100664.05
2023-05-11T05:20:41.694Z,100657.04
2023-05-11T05:23:09.453Z,100649.60
2023-05-11T05:25:36.481Z,100646.39
2023-05-11T05:28:03.536Z,100643.73
2023-05-11T05:30:30.872Z,100646.20
2023-05-11T05:32:57.752Z,100634.70
2023-05-11T05:35:25.500Z,100634.91
2023-05-11T05:37:53.564Z,100633.49
2023-05-11T05:40:20.970Z,100638.60
2023-05-11T05:42:51.635Z,100638.36
2023-05-11T05:45:21.785Z,100641.72
2023-05-11T05:47:51.871Z,100644.36
2023-05-11T05:50:19.641Z,100638.84
2023-05-11T05:52:47.013Z,100641.60
2023-05-11T05:55:14.275Z,100635.92
2023-05-11T05:57:42.246Z,100637.80
2023-05-11T06:00:12.777Z,100642.23
2023-05-11T06:02:42.616Z,100638.01
2023-05-11T06:05:17.230Z,100643.30
2023-05-11T06:07:49.292Z,100636.89
2023-05-11T06:10:22.257Z,100638.88
2023-05-11T06:12:49.337Z,100638.89
2023-05-11T06:15:17.389Z,100641.32
2023-05-11T06:17:47.578Z,100639.28
2023-05-11T06:20:15.373Z,100643.08
2023-05-11T06:22:42.408Z,100650.42
2023-05-11T06:25:11.163Z,100647.65
2023-05-11T06:27:38.794Z,100651.52
2023-05-11T06:30:06.897Z,100648.56
2023-05-11T06:32:35.745Z,100649.36
2023-05-11T06:35:03.076Z,100648.77
2023-05-11T06:37:32.994Z,100651.41
2023-05-11T06:40:00.862Z,100648.42
2023-05-11T06:42:27.912Z,100648.30
2023-05-11T06:45:05.193Z,100651.86
2023-05-11T06:47:33.698Z,100652.85
2023-05-11T06:50:01.140Z,100657.60
2023-05-11T06:52:28.492Z,100657.73
2023-05-11T06:54:56.374Z,100656.38
2023-05-11T06:57:23.212Z,100654.58
2023-05-11T06:59:50.966Z,100654.58
2023-05-11T07:02:18.081Z,100658.40
2023-05-11T07:04:45.182Z,100661.80
2023-05-11T07:07:12.581Z,100660.65
2023-05-11T07:09:41.376Z,100664.02
2023-05-11T07:12:10.274Z,100664.87
2023-05-11T07:14:37.451Z,100665.45
2023-05-11T07:17:04.740Z,100659.50
2023-05-11T07:19:32.098Z,100657.77
2023-05-11T07:21:59.229Z,100649.44
2023-05-11T07:24:26.468Z,100651.13
2023-05-11T07:26:55.684Z,100644.11
2023-05-11T07:29:22.806Z,100645.71
2023-05-11T07:31:49.828Z,100642.95
2023-05-11T07:34:16.805Z,100643.64
2023-05-11T07:36:43.957Z,100646.14
2023-05-11T07:39:11.474Z,100646.99
2023-05-11T07:41:38.365Z,100650.09
2023-05-11T07:44:06.125Z,100644.81
2023-05-11T07:46:33.201Z,100652.44
2023-05-11T07:49:14.601Z,100646.73
2023-05-11T07:51:46.206Z,100644.70
2023-05-11T07:54:13.164Z,100647.68
2023-05-11T07:56:40.135Z,100635.82
2023-05-11T07:59:07.671Z,100659.83
2023-05-11T08:01:34.807Z,100655.42
2023-05-11T08:04:01.752Z,100648.48
2023-05-11T08:06:29.417Z,100655.52
2023-05-11T08:08:56.309Z,100658.17
2023-05-11T08:11:24.244Z,100650.05
2023-05-11T08:13:52.044Z,100665.95
2023-05-11T08:16:19.103Z,100648.02
2023-05-11T08:18:46.129Z,100653.20
2023-05-11T08:21:13.055Z,100652.39
2023-05-11T08:23:39.989Z,100648.03
2023-05-11T08:26:07.753Z,100646.80
2023-05-11T08:28:34.999Z,100640.23
2023-05-11T08:31:02.204Z,100636.89
2023-05-11T08:36:01.064Z,100633.58
2023-05-11T08:38:28.017Z,100630.97
2023-05-11T08:40:55.668Z,100632.48
2023-05-11T08:43:24.056Z,100645.30
2023-05-11T08:45:57.081Z,100630.77
2023-05-11T08:48:25.028Z,100629.10
2023-05-11T08:50:52.244Z,100627.83
2023-05-11T08:53:19.256Z,100631.43
2023-05-11T08:55:47.894Z,100629.89
2023-05-11T08:58:19.556Z,100641.92
2023-05-11T09:00:47.584Z,100625.05
2023-05-11T09:03:14.620Z,100627.15
2023-05-11T09:05:43.556Z,100623.77
2023-05-11T09:08:12.136Z,100627.23
2023-05-11T09:10:40.208Z,100632.83
2023-05-11T09:13:07.256Z,100631.54
2023-05-11T09:15:37.250Z,100636.80
2023-05-11T09:18:05.137Z,100633.59
2023-05-11T09:20:33.653Z,100637.96
2023-05-11T09:23:01.351Z,100629.83
2023-05-11T09:25:32.429Z,100633.72
2023-05-11T09:28:01.097Z,100634.80
2023-05-11T09:30:28.483Z,100627.73
2023-05-11T09:32:57.049Z,100628.14
2023-05-11T09:35:26.171Z,100644.88
2023-05-11T09:38:10.404Z,100642.45
2023-05-11T09:40:38.700Z,100636.54
2023-05-11T09:43:16.597Z,100648.83
2023-05-11T09:45:45.586Z,100638.23
2023-05-11T09:48:25.649Z,100630.27
2023-05-11T09:50:59.412Z,100619.71
2023-05-11T09:53:37.404Z,100622.55
2023-05-11T09:56:04.984Z,100618.83
2023-05-11T09:58:48.214Z,100616.05
2023-05-11T10:01:16.468Z,100622.00
2023-05-11T10:03:58.169Z,100617.33
2023-05-11T10:06:44.166Z,100610.23
2023-05-11T10:09:14.617Z,100610.90
2023-05-11T10:11:47.302Z,100610.94
2023-05-11T10:14:16.244Z,100609.16
2023-05-11T10:16:44.913Z,100611.05
2023-05-11T10:19:14.141Z,100597.55
2023-05-11T10:21:42.737Z,100585.39
2023-05-11T10:24:13.909Z,100596.77
2023-05-11T10:26:41.581Z,100596.23
2023-05-11T10:29:10.662Z,100593.05
2023-05-11T10:31:38.405Z,100586.40
2023-05-11T10:34:07.009Z,100590.13
2023-05-11T10:36:35.090Z,100586.58
2023-05-11T10:39:02.024Z,100584.09
2023-05-11T10:41:40.859Z,100585.02
2023-05-11T10:44:26.120Z,100591.45
2023-05-11T10:47:07.915Z,100610.07
2023-05-11T10:50:04.658Z,100590.13
2023-05-11T10:52:49.670Z,100588.52
2023-05-11T10:55:28.742Z,100576.74
2023-05-11T10:58:08.429Z,100586.19
2023-05-11T11:01:06.644Z,100588.30
2023-05-11T11:03:33.836Z,100603.83
2023-05-11T11:06:01.659Z,100606.73
2023-05-11T11:08:29.833Z,100593.43
2023-05-11T11:10:56.752Z,100579.81
2023-05-11T11:13:25.223Z,100578.20
2023-05-11T11:16:14.510Z,100588.48
2023-05-11T11:18:43.714Z,100575.52
2023-05-11T11:21:15.637Z,100591.21
2023-05-11T11:23:49.253Z,100579.36
2023-05-11T11:26:18.970Z,100575.30
2023-05-11T11:29:14.622Z,100574.73
2023-05-11T11:31:42.624Z,100592.69
2023-05-11T11:34:39.085Z,100581.79
2023-05-11T11:37:10.154Z,100579.11
2023-05-11T11:40:13.124Z,100583.69
2023-05-11T11:42:42.841Z,100592.00
2023-05-11T11:45:31.194Z,100589.20
2023-05-11T11:48:21.564Z,100584.48
2023-05-11T11:50:50.142Z,100586.13
2023-05-11T11:54:09.757Z,100578.39
2023-05-11T11:56:48.760Z,100579.01
2023-05-11T11:59:16.471Z,100582.03
2023-05-11T12:01:45.644Z,100582.92
2023-05-11T12:04:40.924Z,100581.81
2023-05-11T12:07:13.416Z,100582.95
2023-05-11T12:09:42.039Z,100575.64
2023-05-11T12:12:12.103Z,100576.41
2023-05-11T12:14:39.708Z,100579.58
2023-05-11T12:17:18.347Z,100574.52
2023-05-11T12:19:46.694Z,100577.86
2023-05-11T12:22:16.481Z,100568.95
2023-05-11T12:24:44.134Z,100581.64
2023-05-11T12:27:11.688Z,100563.95
2023-05-11T12:29:39.390Z,100561.21
2023-05-11T12:32:12.439Z,100568.86
2023-05-11T12:34:39.532Z,100572.04
2023-05-11T12:37:08.910Z,100560.34
2023-05-11T12:39:37.284Z,100555.30
2023-05-11T12:42:04.452Z,100548.98
2023-05-11T12:44:31.991Z,100544.33
2023-05-11T12:46:59.104Z,100560.14
2023-05-11T12:49:27.759Z,100548.29
2023-05-11T12:52:08.019Z,100553.38
2023-05-11T12:54:38.346Z,100549.84
2023-05-11T12:57:06.131Z,100545.48
2023-05-11T12:59:38.566Z,100539.44
2023-05-11T13:02:18.098Z,100535.26
2023-05-11T13:04:48.038Z,100537.70
2023-05-11T13:07:16.822Z,100538.80
2023-05-11T13:09:43.834Z,100538.90
2023-05-11T13:12:21.253Z,100550.86
2023-05-11T13:14:50.534Z,100534.95
2023-05-11T13:17:31.232Z,100528.77
2023-05-11T13:19:58.828Z,100525.36
2023-05-11T13:22:25.999Z,100536.95
2023-05-11T13:25:04.234Z,100522.11
2023-05-11T13:27:31.017Z,100528.64
2023-05-11T13:29:57.894Z,100520.95
2023-05-11T13:32:25.081Z,100515.40
2023-05-11T13:34:52.426Z,100515.45
2023-05-11T13:37:19.380Z,100515.76
2023-05-11T13:39:46.630Z,100520.35
2023-05-11T13:42:13.653Z,100517.50
2023-05-11T13:44:40.598Z,100518.85
2023-05-11T13:47:08.764Z,100517.08
2023-05-11T13:49:35.821Z,100507.45
2023-05-11T13:52:02.833Z,100518.86
2023-05-11T13:54:31.886Z,100525.30
2023-05-11T13:56:59.620Z,100519.02
2023-05-11T13:59:26.676Z,100528.98
2023-05-11T14:01:54.781Z,100517.95
2023-05-11T14:04:22.012Z,100509.97
2023-05-11T14:06:49.352Z,100515.00
2023-05-11T14:09:16.637Z,100509.52
2023-05-11T14:11:44.066Z,100516.01
2023-05-11T14:14:11.126Z,100502.92
2023-05-11T14:16:38.560Z,100500.84
2023-05-11T14:19:05.713Z,100506.92
2023-05-11T14:21:33.385Z,100513.92
2023-05-11T14:24:11.378Z,100510.93
2023-05-11T14:26:39.972Z,100503.88
2023-05-11T14:29:07.097Z,100503.84
2023-05-11T14:31:35.362Z,100497.67
2023-05-11T14:34:02.851Z,100501.70
2023-05-11T14:36:30.259Z,100494.98
2023-05-11T14:38:57.173Z,100494.00
2023-05-11T14:41:24.200Z,100501.41
2023-05-11T14:43:51.795Z,100497.63
2023-05-11T14:46:18.962Z,100501.40
2023-05-11T14:48:45.898Z,100499.17
2023-05-11T14:51:13.022Z,100494.86
2023-05-11T14:53:39.909Z,100492.73
2023-05-11T14:56:08.132Z,100495.10
2023-05-11T14:58:35.376Z,100496.89
2023-05-11T15:01:02.426Z,100504.39
2023-05-11T15:03:31.377Z,100498.66
2023-05-11T15:05:58.774Z,100498.36
2023-05-11T15:08:30.131Z,100494.34
2023-05-11T15:10:57.922Z,100500.52
2023-05-11T15:13:25.238Z,100503.37
2023-05-11T15:15:52.303Z,100498.00
2023-05-11T15:18:20.018Z,100498.07
2023-05-11T15:20:47.697Z,100507.45
2023-05-11T15:23:17.049Z,100506.51
2023-05-11T15:25:44.640Z,100501.22
2023-05-11T15:28:12.336Z,100502.42
2023-05-11T15:30:41.394Z,100495.89
2023-05-11T15:33:08.735Z,100499.83
2023-05-11T15:35:36.883Z,100505.22
2023-05-11T15:38:03.963Z,100496.64
2023-05-11T15:40:30.843Z,100496.07
2023-05-11T15:42:58.729Z,100493.81
2023-05-11T15:45:26.383Z,100494.94
2023-05-11T15:47:54.196Z,100491.45
2023-05-11T15:50:22.050Z,100506.48
2023-05-11T15:52:49.272Z,100503.80
2023-05-11T15:55:16.147Z,100507.23
2023-05-11T15:57:43.036Z,100515.40
2023-05-11T16:00:15.091Z,100515.64
2023-05-11T16:02:42.858Z,100509.60
2023-05-11T16:05:11.356Z,100510.98
2023-05-11T16:07:38.748Z,100513.31
2023-05-11T16:10:06.749Z,100506.49
2023-05-11T16:12:33.611Z,100513.38
2023-05-11T16:15:00.549Z,100506.60
2023-05-11T16:17:27.439Z,100506.56
2023-05-11T16:19:59.582Z,100503.70
2023-05-11T16:22:26.643Z,100504.34
2023-05-11T16:24:53.435Z,100507.11
2023-05-11T16:27:20.446Z,100499.47
2023-05-11T16:29:47.278Z,100499.89
2023-05-11T16:32:14.395Z,100506.39
2023-05-11T16:34:41.565Z,100511.13
2023-05-11T16:37:08.742Z,100508.38
2023-05-11T16:39:35.877Z,100505.23
2023-05-11T16:42:03.245Z,100503.27
2023-05-11T16:44:30.795Z,100509.06
2023-05-11T16:46:58.550Z,100509.06
2023-05-11T16:49:25.864Z,100506.54
2023-05-11T16:51:53.081Z,100507.55
2023-05-11T16:54:20.103Z,100509.30
2023-05-11T16:56:47.511Z,100507.15
2023-05-11T16:59:14.467Z,100507.31
2023-05-11T17:01:42.051Z,100511.91
2023-05-11T17:04:09.046Z,100510.08
2023-05-11T17:06:36.108Z,100511.33
2023-05-11T17:09:02.960Z,100512.02
2023-05-11T17:11:29.800Z,100514.33
2023-05-11T17:13:56.736Z,100523.96
2023-05-11T17:16:24.121Z,100515.95
2023-05-11T17:18:51.242Z,100521.15
2023-05-11T17:21:18.382Z,100517.30
2023-05-11T17:23:46.003Z,100516.90
2023-05-11T17:26:13.808Z,100517.55
2023-05-11T17:28:41.655Z,100516.82
2023-05-11T17:31:13.172Z,100523.46
2023-05-11T17:33:41.012Z,100524.34
2023-05-11T17:36:09.492Z,100528.11
2023-05-11T17:38:39.521Z,100531.26
2023-05-11T17:41:06.817Z,100530.18
2023-05-11T17:43:34.160Z,100531.61
2023-05-11T17:46:03.826Z,100531.48
2023-05-11T17:48:30.938Z,100532.89
2023-05-11T17:50:58.057Z,100536.25
2023-05-11T17:53:25.188Z,100537.30
2023-05-11T17:55:53.164Z,100536.48
2023-05-11T17:58:20.204Z,100544.58
2023-05-11T18:00:49.129Z,100541.48
2023-05-11T18:03:16.840Z,100543.38
2023-05-11T18:05:48.473Z,100545.71
2023-05-11T18:08:16.095Z,100547.83
2023-05-11T18:10:43.008Z,100555.27
2023-05-11T18:13:10.146Z,100557.21
2023-05-11T18:15:37.827Z,100559.02
2023-05-11T18:18:04.828Z,100558.88
2023-05-11T18:20:31.866Z,100558.59
2023-05-11T18:22:58.894Z,100558.80
2023-05-11T18:25:31.883Z,100562.50
2023-05-11T18:27:59.972Z,100567.61
2023-05-11T18:30:27.098Z,100567.11
2023-05-11T18:32:57.501Z,100569.39
2023-05-11T18:35:27.151Z,100574.84
2023-05-11T18:37:56.988Z,100575.88
2023-05-11T18:40:24.003Z,100578.56
2023-05-11T18:42:53.945Z,100584.14
2023-05-11T18:45:41.600Z,100583.51
2023-05-11T18:48:09.578Z,100583.48
2023-05-11T18:50:36.500Z,100589.54
2023-05-11T18:53:03.386Z,100583.87
2023-05-11T18:55:35.427Z,100586.31
2023-05-11T18:58:08.233Z,100587.01
2023-05-11T19:00:39.408Z,100592.41
2023-05-11T19:03:09.764Z,100594.28
2023-05-11T19:05:37.122Z,100590.54
2023-05-11T19:08:07.162Z,100596.24
2023-05-11T19:10:34.226Z,100596.87
2023-05-11T19:13:01.345Z,100599.12
2023-05-11T19:15:28.283Z,100600.52
2023-05-11T19:17:55.126Z,100604.63
2023-05-11T19:20:22.796Z,100606.84
2023-05-11T19:22:49.929Z,100613.91
2023-05-11T19:25:17.816Z,100614.84
2023-05-11T19:27:45.482Z,100614.19
2023-05-11T19:30:13.645Z,100616.86
2023-05-11T19:32:42.343Z,100616.41
2023-05-11T19:35:11.826Z,100617.48
2023-05-11T19:37:38.728Z,100616.80
2023-05-11T19:40:38.080Z,100619.13
2023-05-11T19:42:56.471Z,100616.39
2023-05-11T19:45:23.486Z,100615.70
2023-05-11T19:47:50.447Z,100619.20
2023-05-11T19:50:20.426Z,100621.98
2023-05-11T19:52:51.178Z,100621.58
2023-05-11T19:55:18.362Z,100623.08
2023-05-11T19:57:45.267Z,100627.90
2023-05-11T20:00:14.103Z,100625.99
2023-05-11T20:02:41.511Z,100625.52
2023-05-11T20:05:10.124Z,100629.00
2023-05-11T20:07:37.288Z,100635.27
2023-05-11T20:10:04.949Z,100628.42
2023-05-11T20:12:34.214Z,100633.85
2023-05-11T20:15:01.162Z,100631.98
2023-05-11T20:17:28.349Z,100633.66
2023-05-11T20:19:55.440Z,100638.52
2023-05-11T20:22:22.996Z,100637.34
2023-05-11T20:24:53.439Z,100632.99
2023-05-11T20:27:23.479Z,100637.55
2023-05-11T20:29:50.652Z,100639.31
2023-05-11T20:32:18.599Z,100644.94
2023-05-11T20:34:54.213Z,100646.52
2023-05-11T20:37:41.445Z,100647.48
2023-05-11T20:40:10.759Z,100643.65
2023-05-11T20:42:39.516Z,100646.66
2023-05-11T20:45:08.024Z,100647.86
2023-05-11T20:47:35.395Z,100646.31
2023-05-11T20:50:02.412Z,100647.75
2023-05-11T20:52:30.282Z,100649.32
2023-05-11T20:54:57.644Z,100648.48
2023-05-11T20:57:24.781Z,100649.27
2023-05-11T21:02:21.906Z,100651.27
2023-05-11T21:04:49.817Z,100652.01
2023-05-11T21:07:16.764Z,100648.92
2023-05-11T21:09:44.598Z,100657.33
2023-05-11T21:12:11.997Z,100658.03
2023-05-11T21:14:39.182Z,100656.70
2023-05-11T21:17:06.480Z,100662.13
2023-05-11T21:19:33.672Z,100663.85
2023-05-11T21:22:00.694Z,100669.79
2023-05-11T21:24:28.007Z,100670.65
2023-05-11T21:26:55.968Z,100671.02
2023-05-11T21:29:23.004Z,100673.06
2023-05-11T21:31:50.312Z,100674.61
2023-05-11T21:34:17.462Z,100678.59
2023-05-11T21:36:47.172Z,100680.13
2023-05-11T21:39:14.425Z,100684.96
2023-05-11T21:41:41.493Z,100686.35
2023-05-11T21:44:08.872Z,100684.77
2023-05-11T21:46:36.440Z,100684.06
2023-05-11T21:49:03.450Z,100687.14
2023-05-11T21:51:30.382Z,100690.41
2023-05-11T21:53:57.541Z,100691.42
2023-05-11T21:56:25.197Z,100687.37
2023-05-11T21:58:52.052Z,100691.70
2023-05-11T22:01:19.990Z,100688.80
2023-05-11T22:03:47.042Z,100689.96
2023-05-11T22:06:14.171Z,100697.23
2023-05-11T22:08:41.259Z,100699.80
2023-05-11T22:11:08.221Z,100701.31
2023-05-11T22:13:35.356Z,100702.64
2023-05-11T22:16:03.491Z,100702.40
2023-05-11T22:18:30.630Z,100710.70
2023-05-11T22:20:57.731Z,100709.59
2023-05-11T22:23:24.743Z,100710.20
2023-05-11T22:25:51.791Z,100711.02
2023-05-11T22:28:30.029Z,100715.13
2023-05-11T22:30:59.044Z,100711.94
2023-05-11T22:33:36.419Z,100715.20
2023-05-11T22:36:03.876Z,100720.36
2023-05-11T22:38:32.804Z,100721.88
2023-05-11T22:41:00.220Z,100725.43
2023-05-11T22:43:27.480Z,100727.67
2023-05-11T22:45:56.830Z,100725.35
2023-05-11T22:48:35.614Z,100724.61
2023-05-11T22:51:06.340Z,100729.58
2023-05-11T22:53:36.077Z,100727.90
2023-05-11T22:56:07.595Z,100727.30
2023-05-11T22:58:36.996Z,100719.73
2023-05-11T23:01:24.341Z,100725.90
2023-05-11T23:03:51.827Z,100719.50
2023-05-11T23:06:30.074Z,100720.44
2023-05-11T23:08:57.008Z,100723.77
2023-05-11T23:11:24.284Z,100724.63
2023-05-11T23:13:51.165Z,100725.68
2023-05-11T23:16:19.611Z,100717.15
2023-05-11T23:18:46.568Z,100716.63
2023-05-11T23:21:16.281Z,100720.28
2023-05-11T23:23:43.735Z,100718.77
2023-05-11T23:26:10.680Z,100718.83
2023-05-11T23:28:37.673Z,100717.64
2023-05-11T23:31:05.456Z,100716.14
2023-05-11T23:33:32.942Z,100714.48
2023-05-11T23:36:00.142Z,100715.41
2023-05-11T23:38:36.358Z,100714.80
2023-05-11T23:41:03.314Z,100708.79
2023-05-11T23:43:50.653Z,100713.94
2023-05-11T23:46:20.775Z,100715.02
2023-05-11T23:48:48.321Z,100711.62
2023-05-11T23:51:16.620Z,100712.40
2023-05-11T23:53:43.836Z,100712.14
2023-05-11T23:56:11.347Z,100713.26
2023-05-11T23:58:45.648Z,100710.23
